sensor_id;sensor_type;location;lat;lon;timestamp;temperature;humidity
53268;DHT22;39156;51.176;6.738;2023-10-19T00:00:34;11.10;84.10
53268;DHT22;39156;51.176;6.738;2023-10-19T00:03:01;11.00;84.10
53268;DHT22;39156;51.176;6.738;2023-10-19T00:05:35;11.00;84.20
53268;DHT22;39156;51.176;6.738;2023-10-19T00:08:02;11.00;84.30
53268;DHT22;39156;51.176;6.738;2023-10-19T00:10:43;10.90;84.60
53268;DHT22;39156;51.176;6.738;2023-10-19T00:13:11;11.00;84.70
53268;DHT22;39156;51.176;6.738;2023-10-19T00:15:42;10.90;84.80
53268;DHT22;39156;51.176;6.738;2023-10-19T00:18:19;11.00;85.20
53268;DHT22;39156;51.176;6.738;2023-10-19T00:20:51;11.10;84.90
53268;DHT22;39156;51.176;6.738;2023-10-19T00:23:19;11.10;85.20
53268;DHT22;39156;51.176;6.738;2023-10-19T00:25:54;11.10;85.10
53268;DHT22;39156;51.176;6.738;2023-10-19T00:28:20;11.10;85.20
53268;DHT22;39156;51.176;6.738;2023-10-19T00:30:47;11.00;85.30
53268;DHT22;39156;51.176;6.738;2023-10-19T00:33:17;11.20;85.80
53268;DHT22;39156;51.176;6.738;2023-10-19T00:35:54;11.20;85.30
53268;DHT22;39156;51.176;6.738;2023-10-19T00:38:36;11.10;85.20
53268;DHT22;39156;51.176;6.738;2023-10-19T00:41:03;11.10;85.40
53268;DHT22;39156;51.176;6.738;2023-10-19T00:43:45;11.20;85.60
53268;DHT22;39156;51.176;6.738;2023-10-19T00:46:12;11.20;85.60
53268;DHT22;39156;51.176;6.738;2023-10-19T00:49:00;11.30;85.70
53268;DHT22;39156;51.176;6.738;2023-10-19T00:51:33;11.20;86.40
53268;DHT22;39156;51.176;6.738;2023-10-19T00:54:34;11.30;85.90
53268;DHT22;39156;51.176;6.738;2023-10-19T00:57:19;11.30;86.10
53268;DHT22;39156;51.176;6.738;2023-10-19T00:59:46;11.20;86.00
53268;DHT22;39156;51.176;6.738;2023-10-19T01:02:13;11.30;86.10
53268;DHT22;39156;51.176;6.738;2023-10-19T01:04:50;11.20;86.10
53268;DHT22;39156;51.176;6.738;2023-10-19T01:07:31;11.30;86.80
53268;DHT22;39156;51.176;6.738;2023-10-19T01:10:01;11.30;86.50
53268;DHT22;39156;51.176;6.738;2023-10-19T01:12:30;11.30;86.50
53268;DHT22;39156;51.176;6.738;2023-10-19T01:15:10;11.40;86.50
53268;DHT22;39156;51.176;6.738;2023-10-19T01:17:50;11.40;87.20
53268;DHT22;39156;51.176;6.738;2023-10-19T01:20:20;11.30;86.60
53268;DHT22;39156;51.176;6.738;2023-10-19T01:22:52;11.40;86.90
53268;DHT22;39156;51.176;6.738;2023-10-19T01:25:44;11.40;87.10
53268;DHT22;39156;51.176;6.738;2023-10-19T01:28:19;11.30;87.00
53268;DHT22;39156;51.176;6.738;2023-10-19T01:30:47;11.30;87.10
53268;DHT22;39156;51.176;6.738;2023-10-19T01:33:17;11.40;87.10
53268;DHT22;39156;51.176;6.738;2023-10-19T01:35:47;11.40;87.30
53268;DHT22;39156;51.176;6.738;2023-10-19T01:38:31;11.40;87.20
53268;DHT22;39156;51.176;6.738;2023-10-19T01:40:59;11.30;87.10
53268;DHT22;39156;51.176;6.738;2023-10-19T01:43:45;11.40;87.20
53268;DHT22;39156;51.176;6.738;2023-10-19T01:46:15;11.40;87.30
53268;DHT22;39156;51.176;6.738;2023-10-19T01:48:53;11.40;87.40
53268;DHT22;39156;51.176;6.738;2023-10-19T01:51:23;11.40;87.60
53268;DHT22;39156;51.176;6.738;2023-10-19T01:53:54;11.40;87.80
53268;DHT22;39156;51.176;6.738;2023-10-19T01:56:21;11.40;87.90
53268;DHT22;39156;51.176;6.738;2023-10-19T01:58:48;11.50;88.10
53268;DHT22;39156;51.176;6.738;2023-10-19T02:01:17;11.40;88.30
53268;DHT22;39156;51.176;6.738;2023-10-19T02:04:02;11.50;88.30
53268;DHT22;39156;51.176;6.738;2023-10-19T02:06:30;11.40;89.00
53268;DHT22;39156;51.176;6.738;2023-10-19T02:09:07;11.50;88.80
53268;DHT22;39156;51.176;6.738;2023-10-19T02:11:42;11.40;89.00
53268;DHT22;39156;51.176;6.738;2023-10-19T02:14:08;11.60;89.20
53268;DHT22;39156;51.176;6.738;2023-10-19T02:16:45;11.50;89.20
53268;DHT22;39156;51.176;6.738;2023-10-19T02:19:18;11.50;89.30
53268;DHT22;39156;51.176;6.738;2023-10-19T02:21:48;11.70;89.60
53268;DHT22;39156;51.176;6.738;2023-10-19T02:24:17;11.70;88.90
53268;DHT22;39156;51.176;6.738;2023-10-19T02:26:44;11.70;88.90
53268;DHT22;39156;51.176;6.738;2023-10-19T02:29:12;11.70;89.00
53268;DHT22;39156;51.176;6.738;2023-10-19T02:31:40;11.70;89.00
53268;DHT22;39156;51.176;6.738;2023-10-19T02:34:11;12.00;89.20
53268;DHT22;39156;51.176;6.738;2023-10-19T02:47:11;11.90;89.50
53268;DHT22;39156;51.176;6.738;2023-10-19T02:49:36;11.80;88.60
53268;DHT22;39156;51.176;6.738;2023-10-19T02:52:04;11.90;88.80
53268;DHT22;39156;51.176;6.738;2023-10-19T02:54:30;11.80;88.80
53268;DHT22;39156;51.176;6.738;2023-10-19T02:56:59;11.90;88.90
53268;DHT22;39156;51.176;6.738;2023-10-19T02:59:26;11.80;88.90
53268;DHT22;39156;51.176;6.738;2023-10-19T03:01:59;11.80;88.90
53268;DHT22;39156;51.176;6.738;2023-10-19T03:04:38;11.90;89.20
53268;DHT22;39156;51.176;6.738;2023-10-19T03:07:04;11.90;89.10
53268;DHT22;39156;51.176;6.738;2023-10-19T03:09:31;11.80;89.10
53268;DHT22;39156;51.176;6.738;2023-10-19T03:12:04;11.80;89.10
53268;DHT22;39156;51.176;6.738;2023-10-19T03:14:35;11.80;89.10
53268;DHT22;39156;51.176;6.738;2023-10-19T03:17:02;11.80;89.10
53268;DHT22;39156;51.176;6.738;2023-10-19T03:19:29;11.80;89.20
53268;DHT22;39156;51.176;6.738;2023-10-19T03:21:54;11.90;89.10
53268;DHT22;39156;51.176;6.738;2023-10-19T03:24:21;12.00;89.20
53268;DHT22;39156;51.176;6.738;2023-10-19T03:27:09;11.90;89.20
53268;DHT22;39156;51.176;6.738;2023-10-19T03:29:49;12.00;89.70
53268;DHT22;39156;51.176;6.738;2023-10-19T03:32:25;11.90;89.30
53268;DHT22;39156;51.176;6.738;2023-10-19T03:34:52;12.00;89.40
53268;DHT22;39156;51.176;6.738;2023-10-19T03:37:22;12.00;89.50
53268;DHT22;39156;51.176;6.738;2023-10-19T03:39:50;11.90;89.40
53268;DHT22;39156;51.176;6.738;2023-10-19T03:42:16;12.00;89.50
53268;DHT22;39156;51.176;6.738;2023-10-19T03:44:42;12.00;89.50
53268;DHT22;39156;51.176;6.738;2023-10-19T03:47:14;12.00;89.60
53268;DHT22;39156;51.176;6.738;2023-10-19T03:49:44;12.20;89.80
53268;DHT22;39156;51.176;6.738;2023-10-19T03:52:14;12.10;89.70
53268;DHT22;39156;51.176;6.738;2023-10-19T03:54:40;12.00;89.70
53268;DHT22;39156;51.176;6.738;2023-10-19T03:57:08;12.10;89.90
53268;DHT22;39156;51.176;6.738;2023-10-19T03:59:39;12.10;89.90
53268;DHT22;39156;51.176;6.738;2023-10-19T04:02:05;12.10;89.90
53268;DHT22;39156;51.176;6.738;2023-10-19T04:04:35;12.00;89.80
53268;DHT22;39156;51.176;6.738;2023-10-19T04:07:01;12.20;89.80
53268;DHT22;39156;51.176;6.738;2023-10-19T04:09:36;12.10;89.80
53268;DHT22;39156;51.176;6.738;2023-10-19T04:12:14;12.20;89.70
53268;DHT22;39156;51.176;6.738;2023-10-19T04:14:42;12.20;89.70
53268;DHT22;39156;51.176;6.738;2023-10-19T04:17:08;12.30;89.70
53268;DHT22;39156;51.176;6.738;2023-10-19T04:19:37;12.20;89.70
53268;DHT22;39156;51.176;6.738;2023-10-19T04:22:04;12.10;89.70
53268;DHT22;39156;51.176;6.738;2023-10-19T04:24:30;12.20;89.50
53268;DHT22;39156;51.176;6.738;2023-10-19T04:26:58;12.20;89.40
53268;DHT22;39156;51.176;6.738;2023-10-19T04:29:24;12.20;89.20
53268;DHT22;39156;51.176;6.738;2023-10-19T04:31:53;12.10;89.20
53268;DHT22;39156;51.176;6.738;2023-10-19T04:34:20;12.10;89.20
53268;DHT22;39156;51.176;6.738;2023-10-19T04:36:50;12.10;89.40
53268;DHT22;39156;51.176;6.738;2023-10-19T04:39:16;12.00;89.60
53268;DHT22;39156;51.176;6.738;2023-10-19T04:41:45;12.10;89.70
53268;DHT22;39156;51.176;6.738;2023-10-19T04:44:14;12.00;89.70
53268;DHT22;39156;51.176;6.738;2023-10-19T04:46:41;12.00;89.80
53268;DHT22;39156;51.176;6.738;2023-10-19T04:49:07;12.10;90.00
53268;DHT22;39156;51.176;6.738;2023-10-19T04:51:33;12.10;90.00
53268;DHT22;39156;51.176;6.738;2023-10-19T04:54:04;12.10;90.10
53268;DHT22;39156;51.176;6.738;2023-10-19T04:56:34;12.10;90.10
53268;DHT22;39156;51.176;6.738;2023-10-19T04:59:01;12.10;90.10
53268;DHT22;39156;51.176;6.738;2023-10-19T05:01:28;12.10;90.10
53268;DHT22;39156;51.176;6.738;2023-10-19T05:03:54;12.10;90.10
53268;DHT22;39156;51.176;6.738;2023-10-19T05:06:20;12.20;90.10
53268;DHT22;39156;51.176;6.738;2023-10-19T05:08:47;12.10;90.10
53268;DHT22;39156;51.176;6.738;2023-10-19T05:11:13;12.20;90.10
53268;DHT22;39156;51.176;6.738;2023-10-19T05:13:39;12.20;90.10
53268;DHT22;39156;51.176;6.738;2023-10-19T05:16:05;12.30;90.10
53268;DHT22;39156;51.176;6.738;2023-10-19T05:18:31;12.10;90.10
53268;DHT22;39156;51.176;6.738;2023-10-19T05:20:57;12.20;90.10
53268;DHT22;39156;51.176;6.738;2023-10-19T05:23:27;12.20;90.10
53268;DHT22;39156;51.176;6.738;2023-10-19T05:25:59;12.20;90.20
53268;DHT22;39156;51.176;6.738;2023-10-19T05:28:26;12.30;90.20
53268;DHT22;39156;51.176;6.738;2023-10-19T05:30:51;12.30;90.20
53268;DHT22;39156;51.176;6.738;2023-10-19T05:33:17;12.20;90.20
53268;DHT22;39156;51.176;6.738;2023-10-19T05:35:50;12.20;90.20
53268;DHT22;39156;51.176;6.738;2023-10-19T05:38:19;12.30;90.30
53268;DHT22;39156;51.176;6.738;2023-10-19T05:40:47;12.30;90.20
53268;DHT22;39156;51.176;6.738;2023-10-19T05:43:15;12.30;90.10
53268;DHT22;39156;51.176;6.738;2023-10-19T05:45:41;12.30;90.10
53268;DHT22;39156;51.176;6.738;2023-10-19T05:48:07;12.30;90.20
53268;DHT22;39156;51.176;6.738;2023-10-19T05:50:34;12.30;90.20
53268;DHT22;39156;51.176;6.738;2023-10-19T05:53:00;12.40;90.20
53268;DHT22;39156;51.176;6.738;2023-10-19T05:55:26;12.30;90.20
53268;DHT22;39156;51.176;6.738;2023-10-19T05:57:52;12.30;90.20
53268;DHT22;39156;51.176;6.738;2023-10-19T06:00:18;12.40;90.20
53268;DHT22;39156;51.176;6.738;2023-10-19T06:02:47;12.40;90.20
53268;DHT22;39156;51.176;6.738;2023-10-19T06:05:17;12.40;90.20
53268;DHT22;39156;51.176;6.738;2023-10-19T06:07:45;12.30;90.20
53268;DHT22;39156;51.176;6.738;2023-10-19T06:10:13;12.40;90.20
53268;DHT22;39156;51.176;6.738;2023-10-19T06:12:45;12.40;90.20
53268;DHT22;39156;51.176;6.738;2023-10-19T06:15:13;12.50;90.20
53268;DHT22;39156;51.176;6.738;2023-10-19T06:17:41;12.40;90.20
53268;DHT22;39156;51.176;6.738;2023-10-19T06:20:11;12.40;90.20
53268;DHT22;39156;51.176;6.738;2023-10-19T06:22:58;12.40;90.20
53268;DHT22;39156;51.176;6.738;2023-10-19T06:25:32;12.50;90.40
53268;DHT22;39156;51.176;6.738;2023-10-19T06:28:00;12.40;90.20
53268;DHT22;39156;51.176;6.738;2023-10-19T06:30:27;12.50;90.20
53268;DHT22;39156;51.176;6.738;2023-10-19T06:32:55;12.50;90.20
53268;DHT22;39156;51.176;6.738;2023-10-19T06:35:29;12.50;90.20
53268;DHT22;39156;51.176;6.738;2023-10-19T06:37:58;12.60;90.20
53268;DHT22;39156;51.176;6.738;2023-10-19T06:40:24;12.60;90.20
53268;DHT22;39156;51.176;6.738;2023-10-19T06:42:54;12.50;90.20
53268;DHT22;39156;51.176;6.738;2023-10-19T06:45:21;12.60;90.20
53268;DHT22;39156;51.176;6.738;2023-10-19T06:47:48;12.60;90.20
53268;DHT22;39156;51.176;6.738;2023-10-19T06:50:17;12.60;90.20
53268;DHT22;39156;51.176;6.738;2023-10-19T06:52:47;12.60;90.20
53268;DHT22;39156;51.176;6.738;2023-10-19T06:55:16;12.80;90.30
53268;DHT22;39156;51.176;6.738;2023-10-19T06:57:53;12.80;90.30
53268;DHT22;39156;51.176;6.738;2023-10-19T07:00:22;12.80;90.30
53268;DHT22;39156;51.176;6.738;2023-10-19T07:02:52;12.80;90.20
53268;DHT22;39156;51.176;6.738;2023-10-19T07:05:20;12.80;90.20
53268;DHT22;39156;51.176;6.738;2023-10-19T07:07:48;12.80;90.10
53268;DHT22;39156;51.176;6.738;2023-10-19T07:10:15;12.80;90.10
53268;DHT22;39156;51.176;6.738;2023-10-19T07:12:43;12.80;90.10
53268;DHT22;39156;51.176;6.738;2023-10-19T07:15:10;12.80;90.10
53268;DHT22;39156;51.176;6.738;2023-10-19T07:17:43;12.90;90.20
53268;DHT22;39156;51.176;6.738;2023-10-19T07:20:10;12.80;90.10
53268;DHT22;39156;51.176;6.738;2023-10-19T07:22:58;12.90;90.20
53268;DHT22;39156;51.176;6.738;2023-10-19T07:25:57;12.90;90.30
53268;DHT22;39156;51.176;6.738;2023-10-19T07:28:26;13.00;90.10
53268;DHT22;39156;51.176;6.738;2023-10-19T07:30:52;12.90;90.10
53268;DHT22;39156;51.176;6.738;2023-10-19T07:33:19;12.90;90.10
53268;DHT22;39156;51.176;6.738;2023-10-19T07:35:49;12.90;90.10
53268;DHT22;39156;51.176;6.738;2023-10-19T07:38:25;12.90;90.20
53268;DHT22;39156;51.176;6.738;2023-10-19T07:40:53;13.00;90.20
53268;DHT22;39156;51.176;6.738;2023-10-19T07:43:19;13.00;90.30
53268;DHT22;39156;51.176;6.738;2023-10-19T07:45:46;13.00;90.30
53268;DHT22;39156;51.176;6.738;2023-10-19T07:48:13;13.10;90.30
53268;DHT22;39156;51.176;6.738;2023-10-19T07:50:39;13.20;90.30
53268;DHT22;39156;51.176;6.738;2023-10-19T07:53:08;13.20;90.30
53268;DHT22;39156;51.176;6.738;2023-10-19T07:55:35;13.20;90.30
53268;DHT22;39156;51.176;6.738;2023-10-19T07:58:01;13.30;90.40
53268;DHT22;39156;51.176;6.738;2023-10-19T08:00:29;13.30;90.40
53268;DHT22;39156;51.176;6.738;2023-10-19T08:02:55;13.30;90.40
53268;DHT22;39156;51.176;6.738;2023-10-19T08:05:21;13.40;90.40
53268;DHT22;39156;51.176;6.738;2023-10-19T08:07:47;13.50;90.80
53268;DHT22;39156;51.176;6.738;2023-10-19T08:10:15;13.70;91.30
53268;DHT22;39156;51.176;6.738;2023-10-19T08:12:43;14.00;91.40
53268;DHT22;39156;51.176;6.738;2023-10-19T08:15:13;14.30;91.30
53268;DHT22;39156;51.176;6.738;2023-10-19T08:17:49;14.70;90.70
53268;DHT22;39156;51.176;6.738;2023-10-19T08:20:16;14.90;89.70
53268;DHT22;39156;51.176;6.738;2023-10-19T08:22:51;15.20;89.20
53268;DHT22;39156;51.176;6.738;2023-10-19T08:25:17;15.40;88.70
53268;DHT22;39156;51.176;6.738;2023-10-19T08:27:46;15.60;87.80
53268;DHT22;39156;51.176;6.738;2023-10-19T08:30:17;15.70;86.60
53268;DHT22;39156;51.176;6.738;2023-10-19T08:32:45;15.80;85.90
53268;DHT22;39156;51.176;6.738;2023-10-19T08:35:15;15.90;85.50
53268;DHT22;39156;51.176;6.738;2023-10-19T08:37:43;15.90;85.20
53268;DHT22;39156;51.176;6.738;2023-10-19T08:40:12;16.00;84.90
53268;DHT22;39156;51.176;6.738;2023-10-19T08:42:43;16.00;84.70
53268;DHT22;39156;51.176;6.738;2023-10-19T08:45:12;16.00;84.50
53268;DHT22;39156;51.176;6.738;2023-10-19T08:48:08;16.00;84.40
53268;DHT22;39156;51.176;6.738;2023-10-19T08:50:34;15.90;84.30
53268;DHT22;39156;51.176;6.738;2023-10-19T08:53:04;15.90;84.30
53268;DHT22;39156;51.176;6.738;2023-10-19T08:55:33;15.90;84.20
53268;DHT22;39156;51.176;6.738;2023-10-19T08:58:03;16.00;84.30
53268;DHT22;39156;51.176;6.738;2023-10-19T09:00:51;16.00;84.50
53268;DHT22;39156;51.176;6.738;2023-10-19T09:03:20;16.00;84.30
53268;DHT22;39156;51.176;6.738;2023-10-19T09:05:47;16.10;84.80
53268;DHT22;39156;51.176;6.738;2023-10-19T09:08:17;16.10;84.70
53268;DHT22;39156;51.176;6.738;2023-10-19T09:10:45;16.20;84.70
53268;DHT22;39156;51.176;6.738;2023-10-19T09:13:11;16.20;84.40
53268;DHT22;39156;51.176;6.738;2023-10-19T09:15:39;16.30;84.50
53268;DHT22;39156;51.176;6.738;2023-10-19T09:18:23;16.40;85.20
53268;DHT22;39156;51.176;6.738;2023-10-19T09:20:52;16.70;85.00
53268;DHT22;39156;51.176;6.738;2023-10-19T09:23:22;17.00;86.50
53268;DHT22;39156;51.176;6.738;2023-10-19T09:25:49;17.40;86.10
53268;DHT22;39156;51.176;6.738;2023-10-19T09:28:18;17.80;86.60
53268;DHT22;39156;51.176;6.738;2023-10-19T09:30:45;18.30;85.90
53268;DHT22;39156;51.176;6.738;2023-10-19T09:33:13;18.70;85.10
53268;DHT22;39156;51.176;6.738;2023-10-19T09:35:40;19.20;82.80
53268;DHT22;39156;51.176;6.738;2023-10-19T09:38:11;19.50;81.20
53268;DHT22;39156;51.176;6.738;2023-10-19T09:40:37;19.80;79.40
53268;DHT22;39156;51.176;6.738;2023-10-19T09:43:05;20.00;78.70
53268;DHT22;39156;51.176;6.738;2023-10-19T09:45:39;20.20;77.90
53268;DHT22;39156;51.176;6.738;2023-10-19T09:48:07;20.30;77.00
53268;DHT22;39156;51.176;6.738;2023-10-19T09:50:34;20.50;77.60
53268;DHT22;39156;51.176;6.738;2023-10-19T09:53:00;20.70;77.80
53268;DHT22;39156;51.176;6.738;2023-10-19T09:55:38;21.00;78.20
53268;DHT22;39156;51.176;6.738;2023-10-19T09:58:31;21.20;75.80
53268;DHT22;39156;51.176;6.738;2023-10-19T10:01:01;21.50;75.90
53268;DHT22;39156;51.176;6.738;2023-10-19T10:03:44;21.80;76.30
53268;DHT22;39156;51.176;6.738;2023-10-19T10:06:12;22.10;73.20
53268;DHT22;39156;51.176;6.738;2023-10-19T10:08:43;22.30;73.30
53268;DHT22;39156;51.176;6.738;2023-10-19T10:11:18;22.60;72.20
53268;DHT22;39156;51.176;6.738;2023-10-19T10:13:55;22.70;69.30
53268;DHT22;39156;51.176;6.738;2023-10-19T10:16:26;22.70;69.60
53268;DHT22;39156;51.176;6.738;2023-10-19T10:18:59;22.60;68.20
53268;DHT22;39156;51.176;6.738;2023-10-19T10:21:29;22.40;67.80
53268;DHT22;39156;51.176;6.738;2023-10-19T10:23:59;22.30;67.90
53268;DHT22;39156;51.176;6.738;2023-10-19T10:26:30;22.10;67.80
53268;DHT22;39156;51.176;6.738;2023-10-19T10:31:43;21.70;68.00
53268;DHT22;39156;51.176;6.738;2023-10-19T10:34:10;21.60;67.90
53268;DHT22;39156;51.176;6.738;2023-10-19T10:36:57;21.40;68.00
53268;DHT22;39156;51.176;6.738;2023-10-19T10:39:26;21.20;68.20
53268;DHT22;39156;51.176;6.738;2023-10-19T10:41:55;21.10;68.00
53268;DHT22;39156;51.176;6.738;2023-10-19T10:44:40;21.00;68.50
53268;DHT22;39156;51.176;6.738;2023-10-19T10:47:10;20.70;67.60
53268;DHT22;39156;51.176;6.738;2023-10-19T10:49:51;20.60;68.10
53268;DHT22;39156;51.176;6.738;2023-10-19T10:52:31;20.50;68.20
53268;DHT22;39156;51.176;6.738;2023-10-19T10:54:58;20.30;68.50
53268;DHT22;39156;51.176;6.738;2023-10-19T10:57:32;20.20;69.00
53268;DHT22;39156;51.176;6.738;2023-10-19T11:00:10;20.10;68.60
53268;DHT22;39156;51.176;6.738;2023-10-19T11:02:44;20.00;68.30
53268;DHT22;39156;51.176;6.738;2023-10-19T11:05:16;20.00;68.90
53268;DHT22;39156;51.176;6.738;2023-10-19T11:08:03;19.90;69.30
53268;DHT22;39156;51.176;6.738;2023-10-19T11:10:40;19.80;69.30
53268;DHT22;39156;51.176;6.738;2023-10-19T11:13:09;19.80;69.30
53268;DHT22;39156;51.176;6.738;2023-10-19T11:15:38;19.70;69.50
53268;DHT22;39156;51.176;6.738;2023-10-19T11:18:05;19.70;69.70
53268;DHT22;39156;51.176;6.738;2023-10-19T11:20:34;19.60;69.50
53268;DHT22;39156;51.176;6.738;2023-10-19T11:23:01;19.60;69.80
53268;DHT22;39156;51.176;6.738;2023-10-19T11:25:28;19.60;70.00
53268;DHT22;39156;51.176;6.738;2023-10-19T11:30:30;19.40;70.20
53268;DHT22;39156;51.176;6.738;2023-10-19T11:32:57;19.40;70.40
53268;DHT22;39156;51.176;6.738;2023-10-19T11:35:26;19.40;70.70
53268;DHT22;39156;51.176;6.738;2023-10-19T11:37:57;19.40;70.80
53268;DHT22;39156;51.176;6.738;2023-10-19T11:40:28;19.30;71.00
53268;DHT22;39156;51.176;6.738;2023-10-19T11:42:54;19.30;71.00
53268;DHT22;39156;51.176;6.738;2023-10-19T11:45:21;19.30;71.20
53268;DHT22;39156;51.176;6.738;2023-10-19T11:47:49;19.40;71.50
53268;DHT22;39156;51.176;6.738;2023-10-19T11:50:16;19.30;71.40
53268;DHT22;39156;51.176;6.738;2023-10-19T11:52:44;19.40;71.30
53268;DHT22;39156;51.176;6.738;2023-10-19T11:55:14;19.40;70.80
53268;DHT22;39156;51.176;6.738;2023-10-19T11:57:42;19.40;70.70
53268;DHT22;39156;51.176;6.738;2023-10-19T12:00:12;19.30;70.80
53268;DHT22;39156;51.176;6.738;2023-10-19T12:02:47;19.30;70.80
53268;DHT22;39156;51.176;6.738;2023-10-19T12:05:13;19.30;71.70
53268;DHT22;39156;51.176;6.738;2023-10-19T12:07:39;19.30;71.00
53268;DHT22;39156;51.176;6.738;2023-10-19T12:10:09;19.30;71.40
53268;DHT22;39156;51.176;6.738;2023-10-19T12:12:39;19.20;71.50
53268;DHT22;39156;51.176;6.738;2023-10-19T12:15:05;19.30;71.70
53268;DHT22;39156;51.176;6.738;2023-10-19T12:17:32;19.20;71.50
53268;DHT22;39156;51.176;6.738;2023-10-19T12:19:58;19.20;71.50
53268;DHT22;39156;51.176;6.738;2023-10-19T12:22:24;19.20;71.60
53268;DHT22;39156;51.176;6.738;2023-10-19T12:24:53;19.10;71.80
53268;DHT22;39156;51.176;6.738;2023-10-19T12:27:20;19.10;71.90
53268;DHT22;39156;51.176;6.738;2023-10-19T12:29:45;19.10;72.20
53268;DHT22;39156;51.176;6.738;2023-10-19T12:32:11;19.00;72.00
53268;DHT22;39156;51.176;6.738;2023-10-19T12:34:40;19.10;72.10
53268;DHT22;39156;51.176;6.738;2023-10-19T12:37:06;19.00;72.40
53268;DHT22;39156;51.176;6.738;2023-10-19T12:39:35;19.00;72.50
53268;DHT22;39156;51.176;6.738;2023-10-19T12:42:01;18.90;72.40
53268;DHT22;39156;51.176;6.738;2023-10-19T12:44:27;18.90;72.40
53268;DHT22;39156;51.176;6.738;2023-10-19T12:46:55;18.90;72.40
53268;DHT22;39156;51.176;6.738;2023-10-19T12:49:22;18.80;72.50
53268;DHT22;39156;51.176;6.738;2023-10-19T12:51:52;18.80;72.70
53268;DHT22;39156;51.176;6.738;2023-10-19T12:54:18;18.70;72.90
53268;DHT22;39156;51.176;6.738;2023-10-19T12:56:44;18.70;73.00
53268;DHT22;39156;51.176;6.738;2023-10-19T12:59:10;18.70;73.00
53268;DHT22;39156;51.176;6.738;2023-10-19T13:01:36;18.60;72.80
53268;DHT22;39156;51.176;6.738;2023-10-19T13:04:02;18.50;73.00
53268;DHT22;39156;51.176;6.738;2023-10-19T13:06:39;18.50;73.30
53268;DHT22;39156;51.176;6.738;2023-10-19T13:09:05;18.40;73.40
53268;DHT22;39156;51.176;6.738;2023-10-19T13:11:30;18.40;73.90
53268;DHT22;39156;51.176;6.738;2023-10-19T13:13:57;18.30;74.10
53268;DHT22;39156;51.176;6.738;2023-10-19T13:16:26;18.30;74.40
53268;DHT22;39156;51.176;6.738;2023-10-19T13:18:53;18.30;74.60
53268;DHT22;39156;51.176;6.738;2023-10-19T13:21:19;18.20;74.90
53268;DHT22;39156;51.176;6.738;2023-10-19T13:23:51;18.20;75.20
53268;DHT22;39156;51.176;6.738;2023-10-19T13:26:17;18.10;75.40
53268;DHT22;39156;51.176;6.738;2023-10-19T13:28:44;18.10;75.90
53268;DHT22;39156;51.176;6.738;2023-10-19T13:31:10;18.10;76.20
53268;DHT22;39156;51.176;6.738;2023-10-19T13:33:36;18.10;76.10
53268;DHT22;39156;51.176;6.738;2023-10-19T13:36:02;18.00;76.50
53268;DHT22;39156;51.176;6.738;2023-10-19T13:38:31;18.00;76.40
53268;DHT22;39156;51.176;6.738;2023-10-19T13:40:56;18.00;76.70
53268;DHT22;39156;51.176;6.738;2023-10-19T13:43:22;18.00;77.00
53268;DHT22;39156;51.176;6.738;2023-10-19T13:45:48;17.90;77.10
53268;DHT22;39156;51.176;6.738;2023-10-19T13:48:15;17.90;77.30
53268;DHT22;39156;51.176;6.738;2023-10-19T13:50:48;17.90;77.40
53268;DHT22;39156;51.176;6.738;2023-10-19T13:53:14;17.90;78.00
53268;DHT22;39156;51.176;6.738;2023-10-19T13:55:42;17.90;77.80
53268;DHT22;39156;51.176;6.738;2023-10-19T13:58:08;17.90;78.00
53268;DHT22;39156;51.176;6.738;2023-10-19T14:00:34;17.90;78.10
53268;DHT22;39156;51.176;6.738;2023-10-19T14:03:06;17.90;78.20
53268;DHT22;39156;51.176;6.738;2023-10-19T14:05:37;17.90;78.40
53268;DHT22;39156;51.176;6.738;2023-10-19T14:08:05;17.90;78.80
53268;DHT22;39156;51.176;6.738;2023-10-19T14:10:31;17.90;78.80
53268;DHT22;39156;51.176;6.738;2023-10-19T14:12:57;17.80;78.60
53268;DHT22;39156;51.176;6.738;2023-10-19T14:15:23;17.80;78.80
53268;DHT22;39156;51.176;6.738;2023-10-19T14:17:49;17.80;78.70
53268;DHT22;39156;51.176;6.738;2023-10-19T14:20:16;17.70;79.00
53268;DHT22;39156;51.176;6.738;2023-10-19T14:22:47;17.70;79.10
53268;DHT22;39156;51.176;6.738;2023-10-19T14:25:14;17.70;79.50
53268;DHT22;39156;51.176;6.738;2023-10-19T14:27:42;17.70;79.40
53268;DHT22;39156;51.176;6.738;2023-10-19T14:30:12;17.70;80.00
53268;DHT22;39156;51.176;6.738;2023-10-19T14:32:40;17.60;80.00
53268;DHT22;39156;51.176;6.738;2023-10-19T14:35:11;17.50;80.20
53268;DHT22;39156;51.176;6.738;2023-10-19T14:37:41;17.50;80.50
53268;DHT22;39156;51.176;6.738;2023-10-19T14:40:17;17.40;80.80
53268;DHT22;39156;51.176;6.738;2023-10-19T14:42:47;17.40;81.00
53268;DHT22;39156;51.176;6.738;2023-10-19T14:45:13;17.30;81.00
53268;DHT22;39156;51.176;6.738;2023-10-19T14:47:41;17.30;81.20
53268;DHT22;39156;51.176;6.738;2023-10-19T14:50:11;17.50;81.10
53268;DHT22;39156;51.176;6.738;2023-10-19T14:52:40;17.30;81.60
53268;DHT22;39156;51.176;6.738;2023-10-19T14:55:07;17.10;81.60
53268;DHT22;39156;51.176;6.738;2023-10-19T14:57:33;17.20;81.90
53268;DHT22;39156;51.176;6.738;2023-10-19T14:59:59;17.10;82.00
53268;DHT22;39156;51.176;6.738;2023-10-19T15:02:46;17.10;82.20
53268;DHT22;39156;51.176;6.738;2023-10-19T15:05:14;17.10;82.90
53268;DHT22;39156;51.176;6.738;2023-10-19T15:07:48;17.10;82.50
53268;DHT22;39156;51.176;6.738;2023-10-19T15:10:24;17.10;82.70
53268;DHT22;39156;51.176;6.738;2023-10-19T15:12:52;17.00;83.50
53268;DHT22;39156;51.176;6.738;2023-10-19T15:15:18;17.00;83.30
53268;DHT22;39156;51.176;6.738;2023-10-19T15:17:44;17.00;83.60
53268;DHT22;39156;51.176;6.738;2023-10-19T15:20:12;16.90;83.90
53268;DHT22;39156;51.176;6.738;2023-10-19T15:22:43;17.00;84.10
53268;DHT22;39156;51.176;6.738;2023-10-19T15:25:10;17.00;84.10
53268;DHT22;39156;51.176;6.738;2023-10-19T15:27:39;17.00;84.10
53268;DHT22;39156;51.176;6.738;2023-10-19T15:30:07;17.00;84.30
53268;DHT22;39156;51.176;6.738;2023-10-19T15:32:34;16.90;84.40
53268;DHT22;39156;51.176;6.738;2023-10-19T15:35:01;16.90;84.40
53268;DHT22;39156;51.176;6.738;2023-10-19T15:37:27;16.90;84.50
53268;DHT22;39156;51.176;6.738;2023-10-19T15:39:53;16.90;84.60
53268;DHT22;39156;51.176;6.738;2023-10-19T15:42:19;16.90;84.80
53268;DHT22;39156;51.176;6.738;2023-10-19T15:44:47;16.90;84.80
53268;DHT22;39156;51.176;6.738;2023-10-19T15:47:14;16.90;84.60
53268;DHT22;39156;51.176;6.738;2023-10-19T15:49:51;16.90;84.70
53268;DHT22;39156;51.176;6.738;2023-10-19T15:52:25;16.90;85.30
53268;DHT22;39156;51.176;6.738;2023-10-19T15:54:54;16.80;84.90
53268;DHT22;39156;51.176;6.738;2023-10-19T15:57:20;16.90;85.00
53268;DHT22;39156;51.176;6.738;2023-10-19T15:59:46;16.90;84.90
53268;DHT22;39156;51.176;6.738;2023-10-19T16:02:14;16.90;85.00